sensor_id;sensor_type;location;lat;lon;timestamp;pressure;altitude;pressure_sealevel;temperature;humidity
25420;BME280;13354;48.174;11.566;2022-10-16T00:02:05;95754.28;;;15.25;91.37
25420;BME280;13354;48.174;11.566;2022-10-16T00:04:30;95748.28;;;15.04;92.32
25420;BME280;13354;48.174;11.566;2022-10-16T00:06:55;95757.72;;;15.07;92.51
25420;BME280;13354;48.174;11.566;2022-10-16T00:09:20;95755.25;;;15.05;92.64
25420;BME280;13354;48.174;11.566;2022-10-16T00:11:45;95760.00;;;15.03;92.07
25420;BME280;13354;48.174;11.566;2022-10-16T00:14:12;95762.44;;;15.05;92.35
25420;BME280;13354;48.174;11.566;2022-10-16T00:16:37;95754.00;;;15.08;92.65
25420;BME280;13354;48.174;11.566;2022-10-16T00:19:03;95763.94;;;14.94;92.84
25420;BME280;13354;48.174;11.566;2022-10-16T00:21:29;95760.38;;;14.82;94.38
25420;BME280;13354;48.174;11.566;2022-10-16T00:23:58;95763.72;;;14.70;95.49
25420;BME280;13354;48.174;11.566;2022-10-16T00:26:24;95747.13;;;14.68;96.08
25420;BME280;13354;48.174;11.566;2022-10-16T00:28:50;95754.72;;;14.65;96.27
25420;BME280;13354;48.174;11.566;2022-10-16T00:31:16;95761.13;;;14.57;97.13
25420;BME280;13354;48.174;11.566;2022-10-16T00:33:42;95764.44;;;14.53;97.69
25420;BME280;13354;48.174;11.566;2022-10-16T00:36:09;95757.53;;;14.77;95.01
25420;BME280;13354;48.174;11.566;2022-10-16T00:38:34;95757.81;;;14.93;93.60
25420;BME280;13354;48.174;11.566;2022-10-16T00:41:00;95749.09;;;14.80;94.34
25420;BME280;13354;48.174;11.566;2022-10-16T00:43:40;95757.22;;;14.60;96.04
25420;BME280;13354;48.174;11.566;2022-10-16T00:46:10;95758.69;;;14.56;96.95
25420;BME280;13354;48.174;11.566;2022-10-16T00:48:37;95761.13;;;14.57;96.37
25420;BME280;13354;48.174;11.566;2022-10-16T00:51:03;95762.59;;;14.85;93.59
25420;BME280;13354;48.174;11.566;2022-10-16T00:53:29;95764.38;;;14.91;92.57
25420;BME280;13354;48.174;11.566;2022-10-16T00:55:55;95765.16;;;14.73;92.97
25420;BME280;13354;48.174;11.566;2022-10-16T00:58:20;95765.91;;;14.80;92.87
25420;BME280;13354;48.174;11.566;2022-10-16T01:00:46;95754.19;;;14.88;92.48
25420;BME280;13354;48.174;11.566;2022-10-16T01:05:49;95760.31;;;14.88;92.03
25420;BME280;13354;48.174;11.566;2022-10-16T01:08:21;95768.09;;;14.90;92.01
25420;BME280;13354;48.174;11.566;2022-10-16T01:10:50;95774.50;;;14.82;92.01
25420;BME280;13354;48.174;11.566;2022-10-16T01:13:21;95777.13;;;14.89;91.71
25420;BME280;13354;48.174;11.566;2022-10-16T01:20:56;95788.34;;;14.97;91.04
25420;BME280;13354;48.174;11.566;2022-10-16T01:28:47;95779.72;;;14.70;91.99
25420;BME280;13354;48.174;11.566;2022-10-16T01:31:17;95787.28;;;14.73;91.61
25420;BME280;13354;48.174;11.566;2022-10-16T01:33:45;95792.22;;;14.70;91.72
25420;BME280;13354;48.174;11.566;2022-10-16T01:36:15;95793.63;;;14.72;92.08
25420;BME280;13354;48.174;11.566;2022-10-16T01:38:42;95787.16;;;14.62;92.59
25420;BME280;13354;48.174;11.566;2022-10-16T01:41:32;95776.28;;;14.63;92.31
25420;BME280;13354;48.174;11.566;2022-10-16T01:44:14;95778.94;;;14.63;92.76
25420;BME280;13354;48.174;11.566;2022-10-16T01:46:42;95769.72;;;14.66;92.60
25420;BME280;13354;48.174;11.566;2022-10-16T01:49:10;95769.25;;;14.69;92.22
25420;BME280;13354;48.174;11.566;2022-10-16T01:51:36;95769.50;;;14.61;92.76
25420;BME280;13354;48.174;11.566;2022-10-16T01:54:02;95764.69;;;14.76;91.49
25420;BME280;13354;48.174;11.566;2022-10-16T01:56:29;95768.41;;;14.75;91.32
25420;BME280;13354;48.174;11.566;2022-10-16T01:58:57;95764.59;;;14.89;90.09
25420;BME280;13354;48.174;11.566;2022-10-16T02:01:24;95761.84;;;14.78;91.55
25420;BME280;13354;48.174;11.566;2022-10-16T02:03:51;95765.00;;;14.61;92.50
25420;BME280;13354;48.174;11.566;2022-10-16T02:06:18;95760.97;;;14.52;93.29
25420;BME280;13354;48.174;11.566;2022-10-16T02:08:44;95761.16;;;14.50;93.74
25420;BME280;13354;48.174;11.566;2022-10-16T02:11:10;95762.41;;;14.55;93.96
25420;BME280;13354;48.174;11.566;2022-10-16T02:13:37;95759.75;;;14.48;94.12
25420;BME280;13354;48.174;11.566;2022-10-16T02:16:03;95762.28;;;14.36;94.89
25420;BME280;13354;48.174;11.566;2022-10-16T02:18:28;95763.88;;;14.76;91.50
25420;BME280;13354;48.174;11.566;2022-10-16T02:23:29;95754.91;;;14.70;90.40
25420;BME280;13354;48.174;11.566;2022-10-16T02:25:58;95760.88;;;14.65;91.49
25420;BME280;13354;48.174;11.566;2022-10-16T02:28:27;95763.72;;;14.70;90.15
25420;BME280;13354;48.174;11.566;2022-10-16T02:31:04;95766.00;;;14.67;90.12
25420;BME280;13354;48.174;11.566;2022-10-16T02:33:33;95773.06;;;14.48;91.86
25420;BME280;13354;48.174;11.566;2022-10-16T02:36:00;95775.28;;;14.58;90.09
25420;BME280;13354;48.174;11.566;2022-10-16T02:38:26;95777.44;;;14.74;88.90
25420;BME280;13354;48.174;11.566;2022-10-16T02:40:52;95784.22;;;14.70;88.85
25420;BME280;13354;48.174;11.566;2022-10-16T02:43:17;95777.63;;;14.72;88.58
25420;BME280;13354;48.174;11.566;2022-10-16T02:45:43;95782.56;;;14.69;88.80
25420;BME280;13354;48.174;11.566;2022-10-16T02:48:08;95775.47;;;14.63;89.42
25420;BME280;13354;48.174;11.566;2022-10-16T02:50:34;95780.00;;;14.56;90.63
25420;BME280;13354;48.174;11.566;2022-10-16T02:52:59;95782.88;;;14.54;90.41
25420;BME280;13354;48.174;11.566;2022-10-16T02:55:24;95790.00;;;14.60;89.28
25420;BME280;13354;48.174;11.566;2022-10-16T02:57:50;95797.84;;;14.55;89.01
25420;BME280;13354;48.174;11.566;2022-10-16T03:00:16;95790.66;;;14.56;89.08
25420;BME280;13354;48.174;11.566;2022-10-16T03:02:42;95793.16;;;14.44;90.03
25420;BME280;13354;48.174;11.566;2022-10-16T03:05:07;95784.41;;;14.30;91.55
25420;BME280;13354;48.174;11.566;2022-10-16T03:07:33;95780.56;;;14.26;92.22
25420;BME280;13354;48.174;11.566;2022-10-16T03:09:58;95783.84;;;14.21;92.43
25420;BME280;13354;48.174;11.566;2022-10-16T03:12:25;95777.94;;;14.13;93.34
25420;BME280;13354;48.174;11.566;2022-10-16T03:14:50;95778.16;;;14.11;93.66
25420;BME280;13354;48.174;11.566;2022-10-16T03:17:16;95771.41;;;14.09;93.92
25420;BME280;13354;48.174;11.566;2022-10-16T03:19:41;95771.22;;;14.04;94.42
25420;BME280;13354;48.174;11.566;2022-10-16T03:22:07;95772.22;;;14.02;94.88
25420;BME280;13354;48.174;11.566;2022-10-16T03:24:32;95778.97;;;14.12;93.92
25420;BME280;13354;48.174;11.566;2022-10-16T03:26:57;95790.72;;;14.36;90.87
25420;BME280;13354;48.174;11.566;2022-10-16T03:29:23;95790.03;;;14.47;89.78
25420;BME280;13354;48.174;11.566;2022-10-16T03:31:48;95780.66;;;14.51;89.62
25420;BME280;13354;48.174;11.566;2022-10-16T03:34:14;95784.13;;;14.45;89.30
25420;BME280;13354;48.174;11.566;2022-10-16T03:36:39;95777.66;;;14.27;90.93
25420;BME280;13354;48.174;11.566;2022-10-16T03:39:05;95778.69;;;14.26;91.88
25420;BME280;13354;48.174;11.566;2022-10-16T03:41:30;95787.91;;;14.31;91.74
25420;BME280;13354;48.174;11.566;2022-10-16T03:43:55;95788.19;;;14.54;88.96
25420;BME280;13354;48.174;11.566;2022-10-16T03:46:20;95793.53;;;14.54;88.23
25420;BME280;13354;48.174;11.566;2022-10-16T03:48:46;95799.63;;;14.61;87.41
25420;BME280;13354;48.174;11.566;2022-10-16T03:51:11;95801.28;;;14.62;87.27
25420;BME280;13354;48.174;11.566;2022-10-16T03:53:36;95799.19;;;14.71;86.53
25420;BME280;13354;48.174;11.566;2022-10-16T03:56:01;95804.53;;;14.64;86.87
25420;BME280;13354;48.174;11.566;2022-10-16T03:58:27;95798.78;;;14.67;86.71
25420;BME280;13354;48.174;11.566;2022-10-16T04:00:52;95792.13;;;14.52;88.60
25420;BME280;13354;48.174;11.566;2022-10-16T04:03:17;95791.19;;;14.33;90.08
25420;BME280;13354;48.174;11.566;2022-10-16T04:05:44;95797.88;;;14.42;90.14
25420;BME280;13354;48.174;11.566;2022-10-16T04:08:09;95792.13;;;14.52;88.83
25420;BME280;13354;48.174;11.566;2022-10-16T04:10:34;95796.44;;;14.39;89.98
25420;BME280;13354;48.174;11.566;2022-10-16T04:13:00;95792.81;;;14.34;90.85
25420;BME280;13354;48.174;11.566;2022-10-16T04:15:25;95793.63;;;14.34;90.95
25420;BME280;13354;48.174;11.566;2022-10-16T04:17:51;95795.66;;;14.32;90.78
25420;BME280;13354;48.174;11.566;2022-10-16T04:20:16;95802.00;;;14.38;90.62
25420;BME280;13354;48.174;11.566;2022-10-16T04:22:42;95793.38;;;14.42;90.95
25420;BME280;13354;48.174;11.566;2022-10-16T04:25:07;95792.13;;;14.45;90.61
25420;BME280;13354;48.174;11.566;2022-10-16T04:27:33;95792.69;;;14.60;88.37
25420;BME280;13354;48.174;11.566;2022-10-16T04:29:59;95797.84;;;14.55;88.60
25420;BME280;13354;48.174;11.566;2022-10-16T04:32:24;95790.88;;;14.54;88.51
25420;BME280;13354;48.174;11.566;2022-10-16T04:34:49;95794.19;;;14.49;88.64
25420;BME280;13354;48.174;11.566;2022-10-16T04:37:15;95804.13;;;14.67;85.79
25420;BME280;13354;48.174;11.566;2022-10-16T04:39:40;95802.06;;;14.69;85.70
25420;BME280;13354;48.174;11.566;2022-10-16T04:42:05;95805.97;;;14.67;86.96
25420;BME280;13354;48.174;11.566;2022-10-16T04:44:30;95804.97;;;14.61;86.98
25420;BME280;13354;48.174;11.566;2022-10-16T04:46:56;95801.63;;;14.72;86.83
25420;BME280;13354;48.174;11.566;2022-10-16T04:49:21;95811.25;;;14.73;85.88
25420;BME280;13354;48.174;11.566;2022-10-16T04:51:46;95808.09;;;14.83;84.32
25420;BME280;13354;48.174;11.566;2022-10-16T04:54:11;95806.31;;;14.77;85.22
25420;BME280;13354;48.174;11.566;2022-10-16T04:56:37;95797.03;;;14.86;85.37
25420;BME280;13354;48.174;11.566;2022-10-16T04:59:08;95797.97;;;14.67;86.01
25420;BME280;13354;48.174;11.566;2022-10-16T05:01:33;95791.06;;;14.59;86.62
25420;BME280;13354;48.174;11.566;2022-10-16T05:03:59;95788.59;;;14.58;86.81
25420;BME280;13354;48.174;11.566;2022-10-16T05:06:24;95789.84;;;14.48;87.38
25420;BME280;13354;48.174;11.566;2022-10-16T05:08:49;95794.56;;;14.46;88.07
25420;BME280;13354;48.174;11.566;2022-10-16T05:11:14;95805.31;;;14.71;86.39
25420;BME280;13354;48.174;11.566;2022-10-16T05:13:40;95810.22;;;14.74;84.99
25420;BME280;13354;48.174;11.566;2022-10-16T05:16:05;95805.75;;;14.68;86.05
25420;BME280;13354;48.174;11.566;2022-10-16T05:18:31;95800.47;;;14.62;86.97
25420;BME280;13354;48.174;11.566;2022-10-16T05:20:56;95800.09;;;14.58;87.86
25420;BME280;13354;48.174;11.566;2022-10-16T05:23:22;95793.72;;;14.59;87.82
25420;BME280;13354;48.174;11.566;2022-10-16T05:25:54;95798.63;;;14.62;87.70
25420;BME280;13354;48.174;11.566;2022-10-16T05:28:20;95789.25;;;14.53;88.07
25420;BME280;13354;48.174;11.566;2022-10-16T05:30:45;95803.78;;;14.50;88.73
25420;BME280;13354;48.174;11.566;2022-10-16T05:33:10;95818.00;;;14.76;86.78
25420;BME280;13354;48.174;11.566;2022-10-16T05:35:36;95810.47;;;14.73;85.66
25420;BME280;13354;48.174;11.566;2022-10-16T05:38:01;95809.22;;;14.69;86.66
25420;BME280;13354;48.174;11.566;2022-10-16T05:40:26;95814.63;;;14.62;86.90
25420;BME280;13354;48.174;11.566;2022-10-16T05:42:54;95817.66;;;14.66;87.31
25420;BME280;13354;48.174;11.566;2022-10-16T05:45:19;95817.22;;;15.01;83.64
25420;BME280;13354;48.174;11.566;2022-10-16T05:47:44;95823.66;;;15.18;82.65
25420;BME280;13354;48.174;11.566;2022-10-16T05:50:10;95829.25;;;14.85;85.05
25420;BME280;13354;48.174;11.566;2022-10-16T05:52:35;95832.75;;;14.79;86.16
25420;BME280;13354;48.174;11.566;2022-10-16T05:55:00;95836.91;;;14.68;87.00
25420;BME280;13354;48.174;11.566;2022-10-16T05:57:26;95837.34;;;14.65;87.83
25420;BME280;13354;48.174;11.566;2022-10-16T05:59:51;95840.06;;;14.58;87.94
25420;BME280;13354;48.174;11.566;2022-10-16T06:02:16;95834.50;;;14.60;87.66
25420;BME280;13354;48.174;11.566;2022-10-16T06:04:41;95830.63;;;14.56;88.00
25420;BME280;13354;48.174;11.566;2022-10-16T06:07:07;95836.38;;;14.53;88.48
25420;BME280;13354;48.174;11.566;2022-10-16T06:09:32;95844.78;;;14.49;89.07
25420;BME280;13354;48.174;11.566;2022-10-16T06:11:57;95840.75;;;14.79;86.34
25420;BME280;13354;48.174;11.566;2022-10-16T06:14:23;95847.81;;;14.60;86.88
25420;BME280;13354;48.174;11.566;2022-10-16T06:16:48;95847.00;;;14.59;87.34
25420;BME280;13354;48.174;11.566;2022-10-16T06:19:14;95846.91;;;14.72;88.71
25420;BME280;13354;48.174;11.566;2022-10-16T06:21:40;95848.88;;;14.90;85.96
25420;BME280;13354;48.174;11.566;2022-10-16T06:24:05;95847.41;;;14.94;86.12
25420;BME280;13354;48.174;11.566;2022-10-16T06:26:31;95856.72;;;14.85;87.80
25420;BME280;13354;48.174;11.566;2022-10-16T06:28:57;95858.81;;;15.08;83.09
25420;BME280;13354;48.174;11.566;2022-10-16T06:31:23;95866.53;;;14.91;84.36
25420;BME280;13354;48.174;11.566;2022-10-16T06:33:52;95860.34;;;15.22;81.82
25420;BME280;13354;48.174;11.566;2022-10-16T06:36:18;95870.88;;;15.17;82.17
25420;BME280;13354;48.174;11.566;2022-10-16T06:38:44;95869.16;;;15.23;81.36
25420;BME280;13354;48.174;11.566;2022-10-16T06:41:11;95864.56;;;15.37;81.09
25420;BME280;13354;48.174;11.566;2022-10-16T06:43:36;95876.28;;;15.04;83.27
25420;BME280;13354;48.174;11.566;2022-10-16T06:46:02;95878.78;;;14.99;84.02
25420;BME280;13354;48.174;11.566;2022-10-16T06:48:28;95883.16;;;15.18;82.42
25420;BME280;13354;48.174;11.566;2022-10-16T06:51:04;95884.50;;;15.03;82.95
25420;BME280;13354;48.174;11.566;2022-10-16T06:53:31;95891.75;;;14.89;84.64
25420;BME280;13354;48.174;11.566;2022-10-16T06:55:58;95890.41;;;14.73;86.11
25420;BME280;13354;48.174;11.566;2022-10-16T06:58:31;95895.50;;;14.74;86.66
25420;BME280;13354;48.174;11.566;2022-10-16T07:00:56;95896.88;;;14.84;85.70
25420;BME280;13354;48.174;11.566;2022-10-16T07:03:22;95893.91;;;15.05;84.20
25420;BME280;13354;48.174;11.566;2022-10-16T07:05:47;95898.34;;;14.80;86.13
25420;BME280;13354;48.174;11.566;2022-10-16T07:08:12;95901.91;;;15.05;84.45
25420;BME280;13354;48.174;11.566;2022-10-16T07:10:38;95901.00;;;15.18;82.75
25420;BME280;13354;48.174;11.566;2022-10-16T07:13:03;95904.63;;;14.98;84.57
25420;BME280;13354;48.174;11.566;2022-10-16T07:15:28;95911.78;;;14.98;85.12
25420;BME280;13354;48.174;11.566;2022-10-16T07:17:54;95906.91;;;14.95;85.83
25420;BME280;13354;48.174;11.566;2022-10-16T07:20:19;95913.06;;;14.89;86.42
25420;BME280;13354;48.174;11.566;2022-10-16T07:22:44;95912.22;;;14.95;86.42
25420;BME280;13354;48.174;11.566;2022-10-16T07:25:10;95909.75;;;14.93;86.64
25420;BME280;13354;48.174;11.566;2022-10-16T07:27:36;95912.25;;;14.88;86.91
25420;BME280;13354;48.174;11.566;2022-10-16T07:30:01;95921.25;;;14.87;87.57
25420;BME280;13354;48.174;11.566;2022-10-16T07:32:27;95921.22;;;15.01;87.41
25420;BME280;13354;48.174;11.566;2022-10-16T07:34:52;95916.66;;;15.08;84.81
25420;BME280;13354;48.174;11.566;2022-10-16T07:37:17;95933.38;;;15.28;82.53
25420;BME280;13354;48.174;11.566;2022-10-16T07:39:43;95935.34;;;15.64;80.41
25420;BME280;13354;48.174;11.566;2022-10-16T07:42:08;95934.84;;;15.49;81.09
25420;BME280;13354;48.174;11.566;2022-10-16T07:44:33;95944.63;;;15.30;82.62
25420;BME280;13354;48.174;11.566;2022-10-16T07:46:59;95948.69;;;15.39;82.50
25420;BME280;13354;48.174;11.566;2022-10-16T07:49:24;95944.78;;;15.35;83.19
25420;BME280;13354;48.174;11.566;2022-10-16T07:51:49;95951.38;;;15.33;83.50
25420;BME280;13354;48.174;11.566;2022-10-16T07:54:15;95950.13;;;15.35;83.32
25420;BME280;13354;48.174;11.566;2022-10-16T07:56:40;95964.31;;;15.61;82.47
25420;BME280;13354;48.174;11.566;2022-10-16T07:59:05;95959.41;;;15.89;81.25
25420;BME280;13354;48.174;11.566;2022-10-16T08:01:30;95956.31;;;16.17;78.20
25420;BME280;13354;48.174;11.566;2022-10-16T08:03:56;95960.13;;;16.03;79.67
25420;BME280;13354;48.174;11.566;2022-10-16T08:06:21;95957.41;;;16.10;78.85
25420;BME280;13354;48.174;11.566;2022-10-16T08:08:47;95955.63;;;16.22;77.90
25420;BME280;13354;48.174;11.566;2022-10-16T08:11:12;95955.69;;;16.15;78.33
25420;BME280;13354;48.174;11.566;2022-10-16T08:13:39;95961.41;;;16.19;78.43
25420;BME280;13354;48.174;11.566;2022-10-16T08:16:05;95962.03;;;16.39;77.31
25420;BME280;13354;48.174;11.566;2022-10-16T08:18:34;95955.09;;;16.75;74.37
25420;BME280;13354;48.174;11.566;2022-10-16T08:20:59;95957.53;;;16.95;73.68
25420;BME280;13354;48.174;11.566;2022-10-16T08:23:25;95960.03;;;17.08;73.53
25420;BME280;13354;48.174;11.566;2022-10-16T08:25:51;95955.28;;;17.41;71.29
25420;BME280;13354;48.174;11.566;2022-10-16T08:28:16;95961.22;;;17.43;71.04
25420;BME280;13354;48.174;11.566;2022-10-16T08:30:41;95970.00;;;17.61;68.01
25420;BME280;13354;48.174;11.566;2022-10-16T08:33:07;95971.03;;;17.79;68.11
25420;BME280;13354;48.174;11.566;2022-10-16T08:35:32;95971.03;;;18.02;66.77
25420;BME280;13354;48.174;11.566;2022-10-16T08:37:57;95975.69;;;18.66;64.48
25420;BME280;13354;48.174;11.566;2022-10-16T08:40:27;95971.22;;;18.95;64.24
25420;BME280;13354;48.174;11.566;2022-10-16T08:42:56;95972.63;;;19.54;62.85
25420;BME280;13354;48.174;11.566;2022-10-16T08:48:13;95971.16;;;20.60;56.79
25420;BME280;13354;48.174;11.566;2022-10-16T08:50:39;95979.47;;;20.97;54.34
25420;BME280;13354;48.174;11.566;2022-10-16T08:53:05;95978.47;;;21.25;53.61
25420;BME280;13354;48.174;11.566;2022-10-16T08:55:49;95986.41;;;21.59;52.81
25420;BME280;13354;48.174;11.566;2022-10-16T08:58:19;95982.75;;;22.02;53.01
25420;BME280;13354;48.174;11.566;2022-10-16T09:03:50;95993.19;;;22.58;51.36
25420;BME280;13354;48.174;11.566;2022-10-16T09:09:18;95998.69;;;23.21;50.28
25420;BME280;13354;48.174;11.566;2022-10-16T09:14:21;95990.69;;;23.61;48.30
25420;BME280;13354;48.174;11.566;2022-10-16T09:16:53;95988.06;;;23.92;48.28
25420;BME280;13354;48.174;11.566;2022-10-16T09:19:27;95989.41;;;24.15;48.17
25420;BME280;13354;48.174;11.566;2022-10-16T09:21:56;95990.00;;;24.27;46.33
25420;BME280;13354;48.174;11.566;2022-10-16T09:24:22;95986.75;;;24.51;44.76
25420;BME280;13354;48.174;11.566;2022-10-16T09:26:49;95991.84;;;23.76;45.50
25420;BME280;13354;48.174;11.566;2022-10-16T09:29:15;95995.94;;;24.14;45.61
25420;BME280;13354;48.174;11.566;2022-10-16T09:31:40;95989.34;;;23.64;45.85
25420;BME280;13354;48.174;11.566;2022-10-16T09:34:06;95997.78;;;23.88;46.71
25420;BME280;13354;48.174;11.566;2022-10-16T09:36:39;95987.25;;;23.81;46.30
25420;BME280;13354;48.174;11.566;2022-10-16T09:39:07;95992.41;;;23.83;46.18
25420;BME280;13354;48.174;11.566;2022-10-16T09:41:36;95997.53;;;23.90;47.05
25420;BME280;13354;48.174;11.566;2022-10-16T09:44:02;96000.25;;;23.95;46.18
25420;BME280;13354;48.174;11.566;2022-10-16T09:46:33;95992.94;;;23.90;46.25
25420;BME280;13354;48.174;11.566;2022-10-16T09:48:59;95995.66;;;23.90;47.06
25420;BME280;13354;48.174;11.566;2022-10-16T09:51:26;96004.56;;;23.96;46.89
25420;BME280;13354;48.174;11.566;2022-10-16T09:53:56;96010.00;;;24.21;44.62
25420;BME280;13354;48.174;11.566;2022-10-16T09:56:26;96003.78;;;24.21;45.10
25420;BME280;13354;48.174;11.566;2022-10-16T09:58:53;96015.44;;;24.42;45.42
25420;BME280;13354;48.174;11.566;2022-10-16T10:01:19;96011.38;;;24.39;44.92
25420;BME280;13354;48.174;11.566;2022-10-16T10:03:45;96015.97;;;24.44;44.32
25420;BME280;13354;48.174;11.566;2022-10-16T10:06:16;96014.88;;;24.45;44.20
25420;BME280;13354;48.174;11.566;2022-10-16T10:08:52;96011.38;;;24.49;43.86
25420;BME280;13354;48.174;11.566;2022-10-16T10:11:18;96010.25;;;24.76;44.51
25420;BME280;13354;48.174;11.566;2022-10-16T10:13:43;96005.88;;;25.00;44.08
25420;BME280;13354;48.174;11.566;2022-10-16T10:16:08;96001.44;;;25.35;43.70
25420;BME280;13354;48.174;11.566;2022-10-16T10:18:33;96001.59;;;25.54;43.66
25420;BME280;13354;48.174;11.566;2022-10-16T10:21:00;95995.28;;;25.79;42.73
25420;BME280;13354;48.174;11.566;2022-10-16T10:23:26;95997.69;;;25.81;43.14
25420;BME280;13354;48.174;11.566;2022-10-16T10:28:37;96009.41;;;26.10;43.55
25420;BME280;13354;48.174;11.566;2022-10-16T10:31:10;96005.53;;;26.21;42.75
25420;BME280;13354;48.174;11.566;2022-10-16T10:38:47;95999.03;;;27.10;38.43
25420;BME280;13354;48.174;11.566;2022-10-16T10:41:19;96002.53;;;27.15;37.78
25420;BME280;13354;48.174;11.566;2022-10-16T10:43:53;95997.22;;;27.29;37.18
25420;BME280;13354;48.174;11.566;2022-10-16T10:48:53;96002.72;;;26.95;36.98
25420;BME280;13354;48.174;11.566;2022-10-16T10:56:30;96004.75;;;26.55;37.69
25420;BME280;13354;48.174;11.566;2022-10-16T11:01:39;96004.69;;;27.18;37.70
25420;BME280;13354;48.174;11.566;2022-10-16T11:04:23;96004.25;;;27.30;37.31
25420;BME280;13354;48.174;11.566;2022-10-16T11:09:21;95998.06;;;27.49;37.81
25420;BME280;13354;48.174;11.566;2022-10-16T11:11:50;95995.44;;;27.38;36.80
25420;BME280;13354;48.174;11.566;2022-10-16T11:14:22;96001.13;;;27.61;36.51
25420;BME280;13354;48.174;11.566;2022-10-16T11:16:51;95999.78;;;27.39;37.18
25420;BME280;13354;48.174;11.566;2022-10-16T11:21:48;96000.00;;;27.86;35.68
25420;BME280;13354;48.174;11.566;2022-10-16T11:24:39;95995.91;;;27.88;35.08
25420;BME280;13354;48.174;11.566;2022-10-16T11:27:01;95995.22;;;27.35;34.95
25420;BME280;13354;48.174;11.566;2022-10-16T11:29:29;95992.97;;;27.42;35.86
25420;BME280;13354;48.174;11.566;2022-10-16T11:31:57;95998.78;;;27.54;35.17
25420;BME280;13354;48.174;11.566;2022-10-16T11:34:45;95999.31;;;27.56;35.14
25420;BME280;13354;48.174;11.566;2022-10-16T11:37:27;95995.13;;;27.21;34.07
25420;BME280;13354;48.174;11.566;2022-10-16T11:39:57;95997.25;;;27.24;34.47
25420;BME280;13354;48.174;11.566;2022-10-16T11:42:32;95993.91;;;27.32;34.02
25420;BME280;13354;48.174;11.566;2022-10-16T11:47:43;95987.25;;;27.43;34.37
25420;BME280;13354;48.174;11.566;2022-10-16T11:55:22;95992.53;;;27.78;33.13
25420;BME280;13354;48.174;11.566;2022-10-16T12:00:44;95988.28;;;27.66;32.51
25420;BME280;13354;48.174;11.566;2022-10-16T12:03:22;95992.44;;;27.83;32.70
25420;BME280;13354;48.174;11.566;2022-10-16T12:08:32;95994.19;;;28.11;33.08
25420;BME280;13354;48.174;11.566;2022-10-16T12:11:08;95988.84;;;28.06;33.82
25420;BME280;13354;48.174;11.566;2022-10-16T13:29:41;95985.38;;;29.12;33.63
25420;BME280;13354;48.174;11.566;2022-10-16T13:32:09;95983.84;;;29.34;33.16
25420;BME280;13354;48.174;11.566;2022-10-16T13:34:45;95983.56;;;29.35;32.52
25420;BME280;13354;48.174;11.566;2022-10-16T13:37:19;95992.56;;;29.36;32.36
25420;BME280;13354;48.174;11.566;2022-10-16T13:39:45;95988.41;;;29.11;32.91
25420;BME280;13354;48.174;11.566;2022-10-16T13:42:14;95986.91;;;29.05;33.96
25420;BME280;13354;48.174;11.566;2022-10-16T13:44:43;95985.50;;;29.21;33.11
25420;BME280;13354;48.174;11.566;2022-10-16T13:47:17;95983.69;;;29.17;32.75
25420;BME280;13354;48.174;11.566;2022-10-16T13:49:43;95985.91;;;29.15;32.70
25420;BME280;13354;48.174;11.566;2022-10-16T13:52:19;95989.72;;;29.00;32.98
25420;BME280;13354;48.174;11.566;2022-10-16T13:54:45;95998.09;;;29.03;33.83
25420;BME280;13354;48.174;11.566;2022-10-16T13:57:14;95996.78;;;29.01;33.36
25420;BME280;13354;48.174;11.566;2022-10-16T13:59:39;96004.47;;;28.99;33.32
25420;BME280;13354;48.174;11.566;2022-10-16T14:02:29;96000.63;;;29.00;33.26
25420;BME280;13354;48.174;11.566;2022-10-16T14:04:57;96007.28;;;29.07;32.52
25420;BME280;13354;48.174;11.566;2022-10-16T14:07:28;96001.19;;;28.83;32.80
25420;BME280;13354;48.174;11.566;2022-10-16T14:09:55;96007.41;;;28.70;33.82
25420;BME280;13354;48.174;11.566;2022-10-16T14:12:21;96003.78;;;28.74;34.99
25420;BME280;13354;48.174;11.566;2022-10-16T14:14:49;96004.75;;;28.51;33.92
25420;BME280;13354;48.174;11.566;2022-10-16T14:17:22;96003.72;;;28.28;35.04
25420;BME280;13354;48.174;11.566;2022-10-16T14:19:49;95998.81;;;28.30;34.83
25420;BME280;13354;48.174;11.566;2022-10-16T14:22:38;96005.16;;;28.06;33.42
25420;BME280;13354;48.174;11.566;2022-10-16T14:28:19;95997.06;;;27.82;35.41
25420;BME280;13354;48.174;11.566;2022-10-16T14:31:01;95996.78;;;27.84;36.16
25420;BME280;13354;48.174;11.566;2022-10-16T14:38:36;95999.75;;;27.63;35.44
25420;BME280;13354;48.174;11.566;2022-10-16T14:41:03;95998.16;;;27.62;36.13
25420;BME280;13354;48.174;11.566;2022-10-16T14:43:33;95997.16;;;27.53;35.11
25420;BME280;13354;48.174;11.566;2022-10-16T14:45:59;96003.38;;;27.35;35.54
25420;BME280;13354;48.174;11.566;2022-10-16T14:48:25;95999.81;;;27.15;36.06
25420;BME280;13354;48.174;11.566;2022-10-16T14:50:51;96008.44;;;26.93;36.14
25420;BME280;13354;48.174;11.566;2022-10-16T14:53:16;96006.88;;;26.87;35.98
25420;BME280;13354;48.174;11.566;2022-10-16T14:55:42;96005.50;;;26.61;37.39
25420;BME280;13354;48.174;11.566;2022-10-16T14:58:22;96008.66;;;26.39;37.07
25420;BME280;13354;48.174;11.566;2022-10-16T15:00:48;96007.13;;;26.27;37.24
25420;BME280;13354;48.174;11.566;2022-10-16T15:03:14;96005.66;;;26.06;37.70
25420;BME280;13354;48.174;11.566;2022-10-16T15:05:39;96006.88;;;25.90;38.20
25420;BME280;13354;48.174;11.566;2022-10-16T15:08:05;96019.69;;;25.74;40.16
25420;BME280;13354;48.174;11.566;2022-10-16T15:10:31;96015.38;;;25.68;40.10
25420;BME280;13354;48.174;11.566;2022-10-16T15:12:58;96021.69;;;25.48;41.07
25420;BME280;13354;48.174;11.566;2022-10-16T15:17:49;96022.09;;;25.16;41.65
25420;BME280;13354;48.174;11.566;2022-10-16T15:20:17;96021.03;;;25.01;42.41
25420;BME280;13354;48.174;11.566;2022-10-16T15:22:43;96028.38;;;24.91;43.04